createdAt,value
2019-05-02T00:00:00.913Z,76.91
2019-05-02T00:01:00.872Z,76.20
2019-05-02T00:02:00.854Z,76.50
2019-05-02T00:03:04.527Z,76.50
2019-05-02T00:04:00.825Z,76.81
2019-05-02T00:05:00.819Z,76.40
2019-05-02T00:06:02.890Z,75.79
2019-05-02T00:07:01.803Z,76.20
2019-05-02T00:08:00.818Z,77.12
2019-05-02T00:09:03.978Z,75.89
2019-05-02T00:10:01.775Z,76.30
2019-05-02T00:11:00.766Z,76.50
2019-05-02T00:12:00.743Z,76.20
2019-05-02T00:13:00.756Z,76.91
2019-05-02T00:14:00.739Z,76.30
2019-05-02T00:15:02.028Z,76.50
2019-05-02T00:16:00.734Z,75.99
2019-05-02T00:17:00.691Z,76.40
2019-05-02T00:18:01.360Z,76.81
2019-05-02T00:19:00.668Z,76.43
2019-05-02T00:20:00.680Z,76.43
2019-05-02T00:21:01.434Z,76.75
2019-05-02T00:22:00.629Z,76.54
2019-05-02T00:23:00.630Z,76.43
2019-05-02T00:24:03.071Z,76.34
2019-05-02T00:25:00.596Z,76.64
2019-05-02T00:26:00.624Z,77.05
2019-05-02T00:27:01.457Z,77.46
2019-05-02T00:28:00.563Z,77.26
2019-05-02T00:29:00.561Z,76.95
2019-05-02T00:30:00.560Z,76.98
2019-05-02T00:31:00.540Z,76.54
2019-05-02T00:32:00.540Z,77.19
2019-05-02T00:33:00.570Z,77.15
2019-05-02T00:34:00.503Z,77.19
2019-05-02T00:35:00.486Z,77.80
2019-05-02T00:36:00.477Z,77.91
2019-05-02T00:37:00.470Z,77.56
2019-05-02T00:38:02.378Z,77.60
2019-05-02T00:39:00.455Z,77.97
2019-05-02T00:40:00.440Z,77.60
2019-05-02T00:41:02.168Z,76.98
2019-05-02T00:42:12.115Z,77.19
2019-05-02T00:43:01.440Z,76.98
2019-05-02T00:44:00.400Z,76.78
2019-05-02T00:45:00.379Z,76.88
2019-05-02T00:46:00.971Z,77.46
2019-05-02T00:47:00.372Z,76.47
2019-05-02T00:48:00.369Z,75.86
2019-05-02T00:49:01.878Z,76.37
2019-05-02T00:50:00.356Z,76.17
2019-05-02T00:51:00.310Z,75.42
2019-05-02T00:52:01.277Z,75.76
2019-05-02T00:53:00.292Z,75.35
2019-05-02T00:54:00.298Z,75.72
2019-05-02T00:55:00.274Z,76.27
2019-05-02T00:56:00.258Z,76.27
2019-05-02T00:57:00.266Z,76.27
2019-05-02T00:58:00.295Z,76.37
2019-05-02T00:59:02.430Z,76.13
2019-05-02T01:00:01.232Z,76.68
2019-05-02T01:01:00.204Z,76.57
2019-05-02T01:02:05.225Z,76.57
2019-05-02T01:03:01.196Z,76.37
2019-05-02T01:04:00.200Z,76.57
2019-05-02T01:05:03.217Z,76.78
2019-05-02T01:06:00.147Z,76.47
2019-05-02T01:07:00.142Z,76.81
2019-05-02T01:08:01.116Z,76.68
2019-05-02T01:09:00.154Z,76.88
2019-05-02T01:10:00.130Z,76.78
2019-05-02T01:11:00.125Z,76.98
2019-05-02T01:12:03.333Z,76.98
2019-05-02T01:13:01.096Z,77.73
2019-05-02T01:14:00.085Z,76.92
2019-05-02T01:15:03.306Z,76.68
2019-05-02T01:16:01.038Z,77.64
2019-05-02T01:17:00.028Z,77.64
2019-05-02T01:18:01.050Z,78.05
2019-05-02T01:19:01.015Z,78.66
2019-05-02T01:20:00.022Z,77.84
2019-05-02T01:21:02.814Z,77.64
2019-05-02T01:21:59.976Z,77.64
2019-05-02T01:22:59.987Z,77.23
2019-05-02T01:24:03.121Z,77.12
2019-05-02T01:24:59.945Z,77.80
2019-05-02T01:25:59.929Z,77.73
2019-05-02T01:27:04.305Z,78.31
2019-05-02T01:27:59.962Z,77.64
2019-05-02T01:28:59.897Z,78.21
2019-05-02T01:30:01.708Z,77.91
2019-05-02T01:31:00.877Z,77.80
2019-05-02T01:31:59.878Z,77.60
2019-05-02T01:33:01.296Z,77.50
2019-05-02T01:34:00.872Z,77.91
2019-05-02T01:34:59.831Z,77.70
2019-05-02T01:36:01.687Z,77.60
2019-05-02T01:37:00.816Z,77.64
2019-05-02T01:37:59.798Z,77.60
2019-05-02T01:39:02.992Z,77.91
2019-05-02T01:40:00.789Z,77.91
2019-05-02T01:40:59.777Z,78.21
2019-05-02T01:42:03.725Z,77.60
2019-05-02T01:42:59.759Z,77.60
2019-05-02T01:44:01.510Z,77.91
2019-05-02T01:44:59.758Z,78.21
2019-05-02T01:45:59.714Z,78.01
2019-05-02T01:47:00.048Z,78.63
2019-05-02T01:47:59.703Z,78.76
2019-05-02T01:48:59.713Z,77.80
2019-05-02T01:49:59.705Z,78.15
2019-05-02T01:51:04.192Z,77.91
2019-05-02T01:52:00.681Z,78.83
2019-05-02T01:53:00.192Z,78.11
2019-05-02T01:53:59.668Z,78.52
2019-05-02T01:54:59.625Z,78.86
2019-05-02T01:55:59.598Z,79.38
2019-05-02T01:56:59.586Z,78.35
2019-05-02T01:57:59.582Z,78.76
2019-05-02T01:58:59.598Z,79.27
2019-05-02T01:59:59.585Z,79.38
2019-05-02T02:00:59.544Z,79.27
2019-05-02T02:01:59.540Z,78.15
2019-05-02T02:02:59.524Z,79.07
2019-05-02T02:03:59.550Z,78.76
2019-05-02T02:04:59.545Z,79.17
2019-05-02T02:06:02.954Z,79.68
2019-05-02T02:07:00.483Z,79.07
2019-05-02T02:07:59.466Z,79.79
2019-05-02T02:09:03.411Z,79.68
2019-05-02T02:10:00.461Z,79.58
2019-05-02T02:10:59.433Z,79.72
2019-05-02T02:11:59.438Z,79.27
2019-05-02T02:13:04.777Z,79.21
2019-05-02T02:14:00.399Z,79.68
2019-05-02T02:14:59.408Z,80.13
2019-05-02T02:16:00.302Z,79.72
2019-05-02T02:16:59.370Z,80.13
2019-05-02T02:17:59.363Z,79.62
2019-05-02T02:19:04.129Z,80.13
2019-05-02T02:20:00.349Z,80.23
2019-05-02T02:20:59.325Z,80.13
2019-05-02T02:22:02.671Z,79.82
2019-05-02T02:23:00.308Z,79.24
2019-05-02T02:23:59.302Z,79.55
2019-05-02T02:25:00.952Z,79.93
2019-05-02T02:25:59.283Z,80.54
2019-05-02T02:26:59.261Z,80.03
2019-05-02T02:27:59.822Z,80.17
2019-05-02T02:29:03.116Z,79.52
2019-05-02T02:30:00.241Z,80.37
2019-05-02T02:31:04.848Z,80.85
2019-05-02T02:32:00.215Z,80.78
2019-05-02T02:33:06.913Z,80.58
2019-05-02T02:34:00.198Z,80.99
2019-05-02T02:35:03.575Z,81.20
2019-05-02T02:36:00.191Z,80.58
2019-05-02T02:36:59.152Z,80.78
2019-05-02T02:37:59.136Z,80.68
2019-05-02T02:38:59.125Z,80.27
2019-05-02T02:39:59.117Z,80.68
2019-05-02T02:40:59.150Z,81.20
2019-05-02T02:41:59.166Z,81.09
2019-05-02T02:43:10.114Z,80.88
2019-05-02T02:44:00.699Z,80.68
2019-05-02T02:44:59.070Z,80.68
2019-05-02T02:45:59.781Z,80.88
2019-05-02T02:46:59.042Z,81.09
2019-05-02T02:47:59.997Z,81.09
2019-05-02T02:48:59.011Z,81.29
2019-05-02T02:50:02.510Z,81.40
2019-05-02T02:50:59.007Z,81.40
2019-05-02T02:52:04.846Z,81.20
2019-05-02T02:52:59.971Z,81.09
2019-05-02T02:54:03.853Z,81.29
2019-05-02T02:54:59.947Z,81.20
2019-05-02T02:56:01.714Z,81.50
2019-05-02T02:56:58.946Z,80.78
2019-05-02T02:58:04.761Z,80.78
2019-05-02T02:58:59.902Z,80.47
2019-05-02T03:00:06.407Z,80.47
2019-05-02T03:00:59.901Z,80.37
2019-05-02T03:02:08.724Z,80.37
2019-05-02T03:02:59.854Z,80.17
2019-05-02T03:04:01.942Z,80.27
2019-05-02T03:04:59.834Z,80.17
2019-05-02T03:06:05.262Z,80.27
2019-05-02T03:06:59.845Z,80.17
2019-05-02T03:07:59.604Z,80.58
2019-05-02T03:08:59.797Z,80.58
2019-05-02T03:09:59.496Z,80.58
2019-05-02T03:10:59.767Z,80.58
2019-05-02T03:12:02.300Z,80.37
2019-05-02T03:12:59.753Z,80.58
2019-05-02T03:14:06.153Z,80.58
2019-05-02T03:14:59.723Z,80.58
2019-05-02T03:16:00.459Z,80.68
2019-05-02T03:16:59.716Z,81.09
2019-05-02T03:17:59.936Z,80.68
2019-05-02T03:18:58.711Z,80.27
2019-05-02T03:20:01.078Z,80.58
2019-05-02T03:20:58.656Z,80.41
2019-05-02T03:22:04.137Z,80.62
2019-05-02T03:22:59.633Z,81.09
2019-05-02T03:24:03.467Z,80.99
2019-05-02T03:24:59.611Z,80.92
2019-05-02T03:25:58.598Z,80.21
2019-05-02T03:26:58.846Z,80.92
2019-05-02T03:27:58.580Z,80.62
2019-05-02T03:29:00.796Z,80.92
2019-05-02T03:29:58.601Z,81.02
2019-05-02T03:30:58.555Z,80.51
2019-05-02T03:32:13.353Z,80.62
2019-05-02T03:33:09.762Z,80.72
2019-05-02T03:34:01.071Z,81.02
2019-05-02T03:34:58.555Z,81.23
2019-05-02T03:35:58.489Z,80.92
2019-05-02T03:37:03.486Z,81.13
2019-05-02T03:37:59.491Z,81.23
2019-05-02T03:38:58.466Z,81.02
2019-05-02T03:40:00.741Z,81.06
2019-05-02T03:40:58.451Z,80.82
2019-05-02T03:42:03.092Z,81.02
2019-05-02T03:42:58.428Z,80.96
2019-05-02T03:44:10.435Z,81.06
2019-05-02T03:45:04.299Z,81.48
2019-05-02T03:45:59.378Z,81.85
2019-05-02T03:47:02.162Z,81.88
2019-05-02T03:47:59.388Z,81.64
2019-05-02T03:49:06.105Z,81.78
2019-05-02T03:49:59.370Z,81.88
2019-05-02T03:50:58.335Z,82.29
2019-05-02T03:52:02.873Z,81.88
2019-05-02T03:52:59.317Z,82.13
2019-05-02T03:54:06.473Z,81.92
2019-05-02T03:54:59.276Z,81.71
2019-05-02T03:55:58.269Z,82.03
2019-05-02T03:56:58.258Z,82.03
2019-05-02T03:57:58.280Z,81.62
2019-05-02T03:58:58.532Z,81.92
2019-05-02T03:59:58.230Z,82.64
2019-05-02T04:01:01.740Z,82.13
2019-05-02T04:01:59.204Z,81.92
2019-05-02T04:03:00.332Z,82.33
2019-05-02T04:03:58.180Z,83.19
2019-05-02T04:05:00.532Z,83.05
2019-05-02T04:05:58.167Z,82.33
2019-05-02T04:07:00.962Z,82.84
2019-05-02T04:07:58.157Z,82.64
2019-05-02T04:08:59.764Z,82.37
2019-05-02T04:09:58.124Z,82.84
2019-05-02T04:10:59.521Z,83.61
2019-05-02T04:11:58.090Z,83.40
2019-05-02T04:12:59.844Z,83.26
2019-05-02T04:13:58.130Z,83.81
2019-05-02T04:14:58.067Z,83.61
2019-05-02T04:15:58.049Z,83.91
2019-05-02T04:16:58.051Z,84.01
2019-05-02T04:17:58.040Z,83.61
2019-05-02T04:18:58.429Z,83.81
2019-05-02T04:19:58.010Z,84.42
2019-05-02T04:20:58.026Z,83.81
2019-05-02T04:22:01.732Z,83.81
2019-05-02T04:22:58.976Z,83.29
2019-05-02T04:24:07.489Z,84.12
2019-05-02T04:24:58.946Z,84.53
2019-05-02T04:25:57.952Z,84.53
2019-05-02T04:26:57.939Z,84.94
2019-05-02T04:27:57.916Z,84.63
2019-05-02T04:28:57.945Z,84.63
2019-05-02T04:30:09.811Z,85.04
2019-05-02T04:30:58.898Z,84.42
2019-05-02T04:31:57.872Z,84.63
2019-05-02T04:32:57.967Z,84.53
2019-05-02T04:33:57.885Z,84.63
2019-05-02T04:34:58.087Z,84.84
2019-05-02T04:35:59.598Z,85.25
2019-05-02T04:37:01.333Z,85.97
2019-05-02T04:38:01.614Z,84.84
2019-05-02T04:38:59.643Z,85.55
2019-05-02T04:39:59.128Z,85.46
2019-05-02T04:40:59.263Z,85.55
2019-05-02T04:41:58.619Z,85.46
2019-05-02T04:43:05.487Z,85.76
2019-05-02T04:44:01.400Z,85.76
2019-05-02T04:45:14.236Z,85.04
2019-05-02T04:46:00.124Z,85.76
2019-05-02T04:47:02.621Z,85.46
2019-05-02T04:48:03.799Z,85.76
2019-05-02T04:48:58.972Z,86.38
2019-05-02T04:49:58.574Z,85.46
2019-05-02T04:50:59.416Z,85.46
2019-05-02T04:52:06.110Z,85.55
2019-05-02T04:52:59.305Z,85.46
2019-05-02T04:53:58.823Z,85.55
2019-05-02T04:55:08.789Z,85.86
2019-05-02T04:56:04.468Z,85.76
2019-05-02T04:57:02.213Z,85.86
2019-05-02T04:57:58.773Z,85.66
2019-05-02T04:59:01.360Z,85.76
2019-05-02T05:00:06.280Z,85.52
2019-05-02T05:01:01.881Z,85.72
2019-05-02T05:02:01.141Z,85.41
2019-05-02T05:02:58.087Z,84.94
2019-05-02T05:04:02.851Z,83.67
2019-05-02T05:04:58.524Z,83.81
2019-05-02T05:06:01.572Z,84.01
2019-05-02T05:07:01.222Z,85.21
2019-05-02T05:07:58.629Z,84.90
2019-05-02T05:08:58.439Z,85.00
2019-05-02T05:10:02.981Z,84.90
2019-05-02T05:10:58.454Z,85.06
2019-05-02T05:11:59.075Z,84.90
2019-05-02T05:12:57.416Z,85.31
2019-05-02T05:14:00.245Z,84.96
2019-05-02T05:14:57.837Z,85.41
2019-05-02T05:15:57.472Z,84.18
2019-05-02T05:16:57.977Z,83.98
2019-05-02T05:17:58.204Z,84.59
2019-05-02T05:18:57.834Z,85.31
2019-05-02T05:20:00.038Z,85.06
2019-05-02T05:20:57.783Z,85.27
2019-05-02T05:22:04.333Z,83.87
2019-05-02T05:22:58.321Z,83.22
2019-05-02T05:24:01.159Z,83.83
2019-05-02T05:24:58.263Z,83.83
2019-05-02T05:26:03.415Z,83.73
2019-05-02T05:27:00.111Z,83.53
2019-05-02T05:28:01.413Z,83.42
2019-05-02T05:28:58.463Z,83.73
2019-05-02T05:29:59.456Z,83.59
2019-05-02T05:30:58.394Z,83.90
2019-05-02T05:32:05.255Z,83.69
2019-05-02T05:32:58.399Z,83.07
2019-05-02T05:33:57.949Z,82.56
2019-05-02T05:34:57.984Z,81.74
2019-05-02T05:35:57.842Z,81.50
2019-05-02T05:36:58.331Z,81.81
2019-05-02T05:37:57.371Z,83.55
2019-05-02T05:38:58.289Z,83.86
2019-05-02T05:39:58.042Z,83.34
2019-05-02T05:40:58.096Z,82.42
2019-05-02T05:41:57.869Z,82.39
2019-05-02T05:42:57.385Z,82.18
2019-05-02T05:43:57.499Z,81.67
2019-05-02T05:44:58.373Z,81.15
2019-05-02T05:46:09.255Z,80.91
2019-05-02T05:46:58.278Z,80.54
2019-05-02T05:48:00.962Z,80.81
2019-05-02T05:48:58.246Z,80.30
2019-05-02T05:50:01.009Z,80.09
2019-05-02T05:50:58.034Z,79.58
2019-05-02T05:52:02.306Z,80.16
2019-05-02T05:52:59.526Z,80.05
2019-05-02T05:54:02.747Z,80.46
2019-05-02T05:54:58.029Z,79.96
2019-05-02T05:56:01.001Z,79.91
2019-05-02T05:56:57.953Z,79.41
2019-05-02T05:58:03.197Z,79.50
2019-05-02T05:58:59.248Z,79.50
2019-05-02T05:59:58.453Z,80.19
2019-05-02T06:00:58.386Z,79.37
2019-05-02T06:01:57.956Z,79.61
2019-05-02T06:03:10.129Z,79.98
2019-05-02T06:03:58.217Z,80.39
2019-05-02T06:05:02.108Z,79.84
2019-05-02T06:05:58.073Z,79.53
2019-05-02T06:06:59.563Z,79.09
2019-05-02T06:07:57.817Z,78.82
2019-05-02T06:08:56.794Z,79.50
2019-05-02T06:09:56.785Z,79.60
2019-05-02T06:10:56.782Z,79.39
2019-05-02T06:11:56.782Z,79.29
2019-05-02T06:12:56.757Z,79.50
2019-05-02T06:13:56.739Z,78.75
2019-05-02T06:15:01.660Z,78.95
2019-05-02T06:16:02.551Z,78.85
2019-05-02T06:16:57.734Z,79.73
2019-05-02T06:17:59.953Z,80.24
2019-05-02T06:18:57.692Z,79.02
2019-05-02T06:19:56.675Z,78.20
2019-05-02T06:20:58.418Z,78.20
2019-05-02T06:21:56.731Z,77.65
2019-05-02T06:23:00.085Z,77.55
2019-05-02T06:23:56.638Z,78.88
2019-05-02T06:24:56.623Z,78.67
2019-05-02T06:25:56.610Z,79.86
2019-05-02T06:26:56.632Z,78.33
2019-05-02T06:28:00.250Z,77.00
2019-05-02T06:28:57.592Z,75.98
2019-05-02T06:29:57.351Z,75.48
2019-05-02T06:30:56.564Z,76.46
2019-05-02T06:31:56.545Z,75.44
2019-05-02T06:32:56.654Z,75.85
2019-05-02T06:33:56.528Z,75.85
2019-05-02T06:34:56.524Z,75.34
2019-05-02T06:36:00.891Z,75.34
2019-05-02T06:36:57.491Z,75.03
2019-05-02T06:37:56.494Z,75.10
2019-05-02T06:38:57.803Z,75.20
2019-05-02T06:39:56.465Z,75.81
2019-05-02T06:40:56.499Z,75.51
2019-05-02T06:41:57.400Z,75.06
2019-05-02T06:42:56.457Z,73.54
2019-05-02T06:43:56.417Z,74.25
2019-05-02T06:44:59.777Z,74.35
2019-05-02T06:45:56.393Z,74.35
2019-05-02T06:46:59.225Z,73.94
2019-05-02T06:47:57.398Z,73.80
2019-05-02T06:48:56.355Z,74.72
2019-05-02T06:50:01.081Z,75.84
2019-05-02T06:50:57.331Z,75.95
2019-05-02T06:51:57.669Z,75.91
2019-05-02T06:52:56.377Z,76.92
2019-05-02T06:53:56.315Z,76.11
2019-05-02T06:54:58.043Z,75.37
2019-05-02T06:55:56.281Z,73.13
2019-05-02T06:56:56.264Z,72.52
2019-05-02T06:57:57.079Z,73.30
2019-05-02T06:58:57.264Z,74.11
2019-05-02T06:59:56.516Z,73.70
2019-05-02T07:00:58.804Z,73.67
2019-05-02T07:01:57.459Z,73.57
2019-05-02T07:02:56.206Z,72.55
2019-05-02T07:03:56.211Z,72.45
2019-05-02T07:04:56.179Z,72.11
2019-05-02T07:05:58.801Z,71.91
2019-05-02T07:06:59.354Z,71.30
2019-05-02T07:07:56.193Z,71.30
2019-05-02T07:08:59.055Z,70.65
2019-05-02T07:09:56.359Z,70.35
2019-05-02T07:11:01.121Z,68.01
2019-05-02T07:12:01.055Z,69.95
2019-05-02T07:13:09.845Z,70.15
2019-05-02T07:13:57.092Z,69.30
2019-05-02T07:15:01.415Z,69.40
2019-05-02T07:15:57.062Z,70.01
2019-05-02T07:16:56.494Z,68.79
2019-05-02T07:17:56.034Z,68.70
2019-05-02T07:18:56.056Z,66.77
2019-05-02T07:19:58.810Z,67.27
2019-05-02T07:20:57.031Z,66.56
2019-05-02T07:21:58.699Z,67.24
2019-05-02T07:22:55.983Z,65.52
2019-05-02T07:23:55.989Z,65.01
2019-05-02T07:24:55.957Z,65.52
2019-05-02T07:25:55.952Z,66.30
2019-05-02T07:26:56.941Z,65.42
2019-05-02T07:27:55.947Z,66.43
2019-05-02T07:28:55.925Z,64.47
2019-05-02T07:29:57.770Z,64.37
2019-05-02T07:30:55.891Z,65.08
2019-05-02T07:31:55.887Z,64.98
2019-05-02T07:32:56.357Z,63.56
2019-05-02T07:33:55.889Z,63.35
2019-05-02T07:34:55.858Z,64.47
2019-05-02T07:36:00.068Z,62.85
2019-05-02T07:36:55.830Z,63.06
2019-05-02T07:37:55.809Z,63.56
2019-05-02T07:38:57.678Z,64.37
2019-05-02T07:39:56.794Z,63.06
2019-05-02T07:40:55.779Z,64.88
2019-05-02T07:41:55.924Z,64.27
2019-05-02T07:42:55.760Z,65.59
2019-05-02T07:43:56.323Z,63.63
2019-05-02T07:44:55.748Z,63.63
2019-05-02T07:45:55.733Z,63.23
2019-05-02T07:46:57.008Z,63.23
2019-05-02T07:47:56.709Z,62.41
2019-05-02T07:48:56.651Z,65.02
2019-05-02T07:49:55.733Z,63.70
2019-05-02T07:50:56.218Z,63.20
2019-05-02T07:51:57.571Z,62.99
2019-05-02T07:52:55.652Z,62.29
2019-05-02T07:53:56.023Z,62.08
2019-05-02T07:54:56.119Z,61.88
2019-05-02T07:55:56.611Z,62.59
2019-05-02T07:56:55.607Z,63.07
2019-05-02T07:57:55.600Z,61.75
2019-05-02T07:58:55.589Z,61.55
2019-05-02T08:00:00.477Z,60.74
2019-05-02T08:00:56.567Z,61.44
2019-05-02T08:01:55.548Z,61.65
2019-05-02T08:02:57.935Z,60.13
2019-05-02T08:03:55.564Z,60.91
2019-05-02T08:04:55.514Z,61.11
2019-05-02T08:05:58.586Z,61.72
2019-05-02T08:06:55.514Z,61.69
2019-05-02T08:07:55.485Z,61.79
2019-05-02T08:08:55.509Z,60.38
2019-05-02T08:09:55.477Z,60.98
2019-05-02T08:11:01.762Z,61.46
2019-05-02T08:11:56.444Z,61.59
2019-05-02T08:12:55.429Z,60.45
2019-05-02T08:14:00.120Z,59.74
2019-05-02T08:14:56.422Z,58.93
2019-05-02T08:15:55.420Z,57.82
2019-05-02T08:17:05.364Z,60.85
2019-05-02T08:17:56.369Z,59.11
2019-05-02T08:18:55.356Z,58.91
2019-05-02T08:19:55.348Z,57.49
2019-05-02T08:20:56.081Z,56.58
2019-05-02T08:21:55.335Z,58.50
2019-05-02T08:22:55.322Z,58.50
2019-05-02T08:23:57.119Z,59.00
2019-05-02T08:24:56.345Z,59.31
2019-05-02T08:25:55.320Z,58.91
2019-05-02T08:26:58.275Z,58.80
2019-05-02T08:27:55.260Z,58.09
2019-05-02T08:28:55.258Z,59.11
2019-05-02T08:29:55.248Z,60.12
2019-05-02T08:30:55.261Z,58.00
2019-05-02T08:31:55.249Z,59.41
2019-05-02T08:32:55.207Z,60.09
2019-05-02T08:33:55.195Z,59.99
2019-05-02T08:34:55.186Z,60.29
2019-05-02T08:35:55.196Z,58.58
2019-05-02T08:36:58.806Z,58.95
2019-05-02T08:37:56.394Z,57.74
2019-05-02T08:38:55.426Z,56.70
2019-05-02T08:39:55.123Z,57.74
2019-05-02T08:40:55.132Z,57.64
2019-05-02T08:41:56.327Z,57.81
2019-05-02T08:42:55.096Z,57.91
2019-05-02T08:43:55.077Z,56.70
2019-05-02T08:44:56.300Z,55.46
2019-05-02T08:45:56.072Z,54.76
2019-05-02T08:46:55.065Z,56.57
2019-05-02T08:47:55.040Z,56.90
2019-05-02T08:48:55.041Z,56.88
2019-05-02T08:49:56.608Z,57.38
2019-05-02T08:50:55.017Z,57.58
2019-05-02T08:51:54.991Z,56.24
2019-05-02T08:52:54.989Z,54.94
2019-05-02T08:53:56.716Z,53.02
2019-05-02T08:54:54.970Z,54.13
2019-05-02T08:55:55.002Z,55.24
2019-05-02T08:56:58.928Z,55.74
2019-05-02T08:57:55.928Z,56.15
2019-05-02T08:58:54.919Z,52.51
2019-05-02T08:59:55.433Z,55.54
2019-05-02T09:00:54.912Z,55.34
2019-05-02T09:01:54.910Z,55.62
2019-05-02T09:02:56.993Z,56.02
2019-05-02T09:03:56.996Z,52.11
2019-05-02T09:04:58.692Z,52.09
2019-05-02T09:06:05.281Z,54.00
2019-05-02T09:06:58.702Z,53.00
2019-05-02T09:07:54.820Z,53.70
2019-05-02T09:08:54.810Z,54.00
2019-05-02T09:09:55.612Z,53.90
2019-05-02T09:10:54.805Z,52.09
2019-05-02T09:12:03.319Z,51.18
2019-05-02T09:12:55.762Z,52.39
2019-05-02T09:13:54.750Z,54.71
2019-05-02T09:14:54.752Z,50.27
2019-05-02T09:15:54.847Z,49.77
2019-05-02T09:16:54.722Z,52.69
2019-05-02T09:17:56.479Z,50.88
2019-05-02T09:18:54.738Z,53.40
2019-05-02T09:20:02.454Z,52.19
2019-05-02T09:20:56.677Z,50.88
2019-05-02T09:21:54.750Z,50.78
2019-05-02T09:22:56.075Z,51.40
2019-05-02T09:23:54.639Z,50.37
2019-05-02T09:24:54.642Z,51.89
2019-05-02T09:25:54.632Z,54.10
2019-05-02T09:26:54.640Z,55.11
2019-05-02T09:27:54.615Z,52.47
2019-05-02T09:28:56.271Z,51.06
2019-05-02T09:29:55.626Z,50.78
2019-05-02T09:30:57.251Z,54.58
2019-05-02T09:31:55.553Z,55.59
2019-05-02T09:32:57.150Z,55.06
2019-05-02T09:33:55.802Z,53.45
2019-05-02T09:34:56.725Z,52.14
2019-05-02T09:35:55.512Z,52.74
2019-05-02T09:36:54.533Z,52.54
2019-05-02T09:37:54.517Z,52.51
2019-05-02T09:38:57.620Z,53.63
2019-05-02T09:39:54.476Z,54.93
2019-05-02T09:40:56.158Z,52.80
2019-05-02T09:41:54.446Z,53.40
2019-05-02T09:42:58.530Z,52.80
2019-05-02T09:43:55.422Z,52.39
2019-05-02T09:44:57.022Z,53.40
2019-05-02T09:45:54.426Z,53.57
2019-05-02T09:46:57.018Z,52.37
2019-05-02T09:48:04.065Z,47.85
2019-05-02T09:48:57.065Z,51.04
2019-05-02T09:49:55.375Z,50.46
2019-05-02T09:50:54.352Z,49.76
2019-05-02T09:51:59.306Z,51.94
2019-05-02T09:52:55.342Z,52.47
2019-05-02T09:53:57.026Z,50.93
2019-05-02T09:54:55.322Z,51.54
2019-05-02T09:55:57.719Z,51.84
2019-05-02T09:56:54.307Z,49.53
2019-05-02T09:57:54.286Z,48.12
2019-05-02T09:59:01.960Z,47.74
2019-05-02T09:59:55.827Z,51.66
2019-05-02T10:00:54.255Z,48.14
2019-05-02T10:01:54.225Z,49.25
2019-05-02T10:02:54.272Z,50.84
2019-05-02T10:03:54.234Z,50.13
2019-05-02T10:04:54.207Z,51.04
2019-05-02T10:05:54.197Z,49.83
2019-05-02T10:06:54.296Z,47.72
2019-05-02T10:07:57.419Z,49.53
2019-05-02T10:08:55.166Z,49.13
2019-05-02T10:09:57.626Z,49.22
2019-05-02T10:10:55.135Z,49.53
2019-05-02T10:11:54.119Z,51.84
2019-05-02T10:12:54.109Z,49.63
2019-05-02T10:13:55.486Z,49.13
2019-05-02T10:14:54.130Z,50.23
2019-05-02T10:15:54.078Z,49.13
2019-05-02T10:16:57.558Z,50.13
2019-05-02T10:18:07.927Z,49.73
2019-05-02T10:18:55.059Z,49.63
2019-05-02T10:19:56.563Z,48.83
2019-05-02T10:20:54.032Z,49.02
2019-05-02T10:21:56.137Z,47.82
2019-05-02T10:22:54.011Z,47.82
2019-05-02T10:23:59.572Z,47.92
2019-05-02T10:24:54.978Z,47.42
2019-05-02T10:25:53.974Z,47.72
2019-05-02T10:26:55.143Z,47.62
2019-05-02T10:27:54.947Z,50.84
2019-05-02T10:28:54.000Z,47.42
2019-05-02T10:29:56.946Z,49.22
2019-05-02T10:30:56.679Z,47.62
2019-05-02T10:31:53.939Z,46.61
2019-05-02T10:32:57.303Z,50.03
2019-05-02T10:33:53.893Z,50.73
2019-05-02T10:34:56.756Z,50.33
2019-05-02T10:35:53.852Z,47.72
2019-05-02T10:36:58.611Z,48.12
2019-05-02T10:37:54.832Z,47.52
2019-05-02T10:38:59.024Z,46.72
2019-05-02T10:39:55.919Z,47.62
2019-05-02T10:41:01.311Z,47.92
2019-05-02T10:41:57.499Z,49.22
2019-05-02T10:42:53.778Z,49.02
2019-05-02T10:43:56.660Z,46.61
2019-05-02T10:44:54.757Z,45.81
2019-05-02T10:45:56.492Z,47.82
2019-05-02T10:46:53.738Z,46.61
2019-05-02T10:47:53.729Z,47.62
2019-05-02T10:48:53.734Z,48.93
2019-05-02T10:49:53.727Z,49.83
2019-05-02T10:50:53.696Z,46.22
2019-05-02T10:51:53.854Z,49.83
2019-05-02T10:52:53.682Z,49.10
2019-05-02T10:53:56.358Z,50.23
2019-05-02T10:54:53.680Z,50.11
2019-05-02T10:55:53.661Z,49.80
2019-05-02T10:56:53.647Z,49.40
2019-05-02T10:57:53.621Z,48.18
2019-05-02T10:58:53.604Z,47.58
2019-05-02T10:59:56.172Z,49.58
2019-05-02T11:00:53.595Z,48.98
2019-05-02T11:01:53.583Z,47.67
2019-05-02T11:02:53.562Z,48.66
2019-05-02T11:03:53.570Z,48.35
2019-05-02T11:04:53.553Z,49.46
2019-05-02T11:05:57.868Z,49.43
2019-05-02T11:06:56.677Z,47.25
2019-05-02T11:07:56.910Z,47.63
2019-05-02T11:08:54.513Z,47.33
2019-05-02T11:09:57.229Z,44.72
2019-05-02T11:10:54.473Z,46.23
2019-05-02T11:11:53.468Z,46.12
2019-05-02T11:12:56.115Z,46.33
2019-05-02T11:14:00.722Z,47.53
2019-05-02T11:14:54.462Z,48.03
2019-05-02T11:15:53.431Z,48.73
2019-05-02T11:16:53.407Z,44.30
2019-05-02T11:17:53.450Z,44.40
2019-05-02T11:18:53.394Z,45.80
2019-05-02T11:19:53.374Z,44.02
2019-05-02T11:20:53.376Z,47.91
2019-05-02T11:21:58.206Z,44.90
2019-05-02T11:22:54.604Z,46.81
2019-05-02T11:23:53.414Z,46.81
2019-05-02T11:24:53.328Z,48.11
2019-05-02T11:25:53.322Z,45.10
2019-05-02T11:26:53.336Z,45.90
2019-05-02T11:27:57.346Z,46.41
2019-05-02T11:28:54.270Z,46.70
2019-05-02T11:29:53.266Z,47.61
2019-05-02T11:30:56.934Z,47.20
2019-05-02T11:31:54.243Z,47.11
2019-05-02T11:32:53.231Z,47.71
2019-05-02T11:33:53.293Z,43.10
2019-05-02T11:34:53.210Z,42.80
2019-05-02T11:35:53.623Z,44.60
2019-05-02T11:36:53.184Z,45.50
2019-05-02T11:37:53.181Z,46.20
2019-05-02T11:39:01.111Z,44.10
2019-05-02T11:40:00.255Z,46.98
2019-05-02T11:40:54.157Z,45.38
2019-05-02T11:41:53.158Z,46.38
2019-05-02T11:42:57.307Z,47.28
2019-05-02T11:43:55.876Z,47.16
2019-05-02T11:44:53.101Z,41.96
2019-05-02T11:45:55.884Z,42.16
2019-05-02T11:46:54.083Z,42.07
2019-05-02T11:47:55.941Z,44.35
2019-05-02T11:48:58.076Z,45.26
2019-05-02T11:49:56.041Z,47.16
2019-05-02T11:50:53.067Z,46.26
2019-05-02T11:51:57.124Z,43.16
2019-05-02T11:52:53.011Z,40.65
2019-05-02T11:53:53.009Z,40.15
2019-05-02T11:54:53.002Z,41.27
2019-05-02T11:55:53.310Z,43.18
2019-05-02T11:56:53.679Z,43.98
2019-05-02T11:57:52.983Z,45.48
2019-05-02T11:58:53.052Z,45.78
2019-05-02T11:59:52.932Z,44.78
2019-05-02T12:00:52.942Z,43.38
2019-05-02T12:01:59.751Z,43.68
2019-05-02T12:02:57.950Z,45.38
2019-05-02T12:03:52.887Z,44.38
2019-05-02T12:04:55.521Z,46.08
2019-05-02T12:05:52.906Z,43.88
2019-05-02T12:07:00.911Z,41.67
2019-05-02T12:07:53.856Z,45.28
2019-05-02T12:08:52.868Z,44.88
2019-05-02T12:09:57.097Z,45.78
2019-05-02T12:10:52.870Z,46.78
2019-05-02T12:11:56.634Z,46.58
2019-05-02T12:12:52.789Z,46.41
2019-05-02T12:13:56.889Z,45.60
2019-05-02T12:14:52.874Z,46.20
2019-05-02T12:15:52.754Z,46.41
2019-05-02T12:16:52.887Z,45.60
2019-05-02T12:17:52.744Z,45.50
2019-05-02T12:18:53.732Z,46.50
2019-05-02T12:19:53.723Z,46.83
2019-05-02T12:20:52.765Z,47.11
2019-05-02T12:21:52.967Z,46.41
2019-05-02T12:22:52.904Z,45.72
2019-05-02T12:23:53.021Z,45.30
2019-05-02T12:24:52.732Z,45.53
2019-05-02T12:25:52.648Z,44.32
2019-05-02T12:26:52.918Z,45.83
2019-05-02T12:27:52.817Z,46.73
2019-05-02T12:28:52.846Z,46.75
2019-05-02T12:29:57.683Z,46.85
2019-05-02T12:30:53.588Z,46.55
2019-05-02T12:31:56.304Z,44.54
2019-05-02T12:32:53.151Z,47.96
2019-05-02T12:33:52.557Z,45.54
2019-05-02T12:34:52.715Z,47.75
2019-05-02T12:35:52.655Z,46.57
2019-05-02T12:36:52.549Z,47.47
2019-05-02T12:37:55.203Z,47.07
2019-05-02T12:38:52.819Z,46.57
2019-05-02T12:39:52.492Z,46.17
2019-05-02T12:40:52.490Z,46.17
2019-05-02T12:41:53.676Z,47.27
2019-05-02T12:42:52.646Z,48.18
2019-05-02T12:43:52.602Z,47.38
2019-05-02T12:44:53.246Z,47.38
2019-05-02T12:45:52.979Z,47.38
2019-05-02T12:46:52.427Z,47.09
2019-05-02T12:47:52.415Z,47.50
2019-05-02T12:48:52.391Z,45.89
2019-05-02T12:49:52.381Z,44.96
2019-05-02T12:50:52.920Z,46.89
2019-05-02T12:51:52.598Z,47.39